sensor_id;sensor_type;location;lat;lon;timestamp;temperature;humidity
63017;DHT22;50274;45.640;11.756;2023-04-26T00:01:55;10.50;72.50
63017;DHT22;50274;45.640;11.756;2023-04-26T00:04:22;10.50;72.70
63017;DHT22;50274;45.640;11.756;2023-04-26T00:06:48;10.50;72.70
63017;DHT22;50274;45.640;11.756;2023-04-26T00:09:14;10.50;72.70
63017;DHT22;50274;45.640;11.756;2023-04-26T00:11:43;10.50;72.70
63017;DHT22;50274;45.640;11.756;2023-04-26T00:14:11;10.50;72.70
63017;DHT22;50274;45.640;11.756;2023-04-26T00:16:37;10.40;72.70
63017;DHT22;50274;45.640;11.756;2023-04-26T00:19:03;10.40;72.80
63017;DHT22;50274;45.640;11.756;2023-04-26T00:21:29;10.40;72.80
63017;DHT22;50274;45.640;11.756;2023-04-26T00:23:55;10.40;72.80
63017;DHT22;50274;45.640;11.756;2023-04-26T00:26:22;10.30;72.80
63017;DHT22;50274;45.640;11.756;2023-04-26T00:28:48;10.30;72.80
63017;DHT22;50274;45.640;11.756;2023-04-26T00:31:16;10.30;72.70
63017;DHT22;50274;45.640;11.756;2023-04-26T00:33:45;10.30;72.70
63017;DHT22;50274;45.640;11.756;2023-04-26T00:36:12;10.30;72.70
63017;DHT22;50274;45.640;11.756;2023-04-26T00:38:38;10.30;72.70
63017;DHT22;50274;45.640;11.756;2023-04-26T00:41:04;10.30;72.60
63017;DHT22;50274;45.640;11.756;2023-04-26T00:43:30;10.30;72.60
63017;DHT22;50274;45.640;11.756;2023-04-26T00:45:55;10.30;72.70
63017;DHT22;50274;45.640;11.756;2023-04-26T00:48:21;10.20;72.70
63017;DHT22;50274;45.640;11.756;2023-04-26T00:50:47;10.20;72.70
63017;DHT22;50274;45.640;11.756;2023-04-26T00:53:14;10.20;72.70
63017;DHT22;50274;45.640;11.756;2023-04-26T00:55:41;10.20;72.70
63017;DHT22;50274;45.640;11.756;2023-04-26T00:58:08;10.20;72.80
63017;DHT22;50274;45.640;11.756;2023-04-26T01:00:33;10.10;72.80
63017;DHT22;50274;45.640;11.756;2023-04-26T01:02:59;10.10;72.80
63017;DHT22;50274;45.640;11.756;2023-04-26T01:05:25;10.00;72.80
63017;DHT22;50274;45.640;11.756;2023-04-26T01:07:53;10.00;72.90
63017;DHT22;50274;45.640;11.756;2023-04-26T01:10:20;10.00;73.00
63017;DHT22;50274;45.640;11.756;2023-04-26T01:12:48;10.00;73.00
63017;DHT22;50274;45.640;11.756;2023-04-26T01:15:14;10.00;73.00
63017;DHT22;50274;45.640;11.756;2023-04-26T01:17:41;9.90;73.00
63017;DHT22;50274;45.640;11.756;2023-04-26T01:20:12;9.90;72.90
63017;DHT22;50274;45.640;11.756;2023-04-26T01:22:38;9.90;72.90
63017;DHT22;50274;45.640;11.756;2023-04-26T01:25:05;9.80;73.00
63017;DHT22;50274;45.640;11.756;2023-04-26T01:27:34;9.80;73.00
63017;DHT22;50274;45.640;11.756;2023-04-26T01:30:00;9.80;73.10
63017;DHT22;50274;45.640;11.756;2023-04-26T01:32:26;9.90;73.00
63017;DHT22;50274;45.640;11.756;2023-04-26T01:34:54;9.90;72.90
63017;DHT22;50274;45.640;11.756;2023-04-26T01:37:20;9.90;72.90
63017;DHT22;50274;45.640;11.756;2023-04-26T01:39:46;9.80;72.80
63017;DHT22;50274;45.640;11.756;2023-04-26T01:42:12;9.80;72.90
63017;DHT22;50274;45.640;11.756;2023-04-26T01:44:38;9.80;72.90
63017;DHT22;50274;45.640;11.756;2023-04-26T01:47:04;9.80;72.90
63017;DHT22;50274;45.640;11.756;2023-04-26T01:49:30;9.80;72.80
63017;DHT22;50274;45.640;11.756;2023-04-26T01:51:58;9.80;72.80
63017;DHT22;50274;45.640;11.756;2023-04-26T01:54:23;9.80;72.70
63017;DHT22;50274;45.640;11.756;2023-04-26T01:56:50;9.80;72.60
63017;DHT22;50274;45.640;11.756;2023-04-26T01:59:15;9.70;72.50
63017;DHT22;50274;45.640;11.756;2023-04-26T02:01:41;9.70;72.50
63017;DHT22;50274;45.640;11.756;2023-04-26T02:04:10;9.70;72.30
63017;DHT22;50274;45.640;11.756;2023-04-26T02:06:36;9.70;72.20
63017;DHT22;50274;45.640;11.756;2023-04-26T02:09:03;9.70;72.20
63017;DHT22;50274;45.640;11.756;2023-04-26T02:11:29;9.60;72.20
63017;DHT22;50274;45.640;11.756;2023-04-26T02:13:57;9.60;72.20
63017;DHT22;50274;45.640;11.756;2023-04-26T02:16:23;9.50;72.20
63017;DHT22;50274;45.640;11.756;2023-04-26T02:18:49;9.50;72.10
63017;DHT22;50274;45.640;11.756;2023-04-26T02:21:17;9.40;72.10
63017;DHT22;50274;45.640;11.756;2023-04-26T02:23:44;9.40;72.20
63017;DHT22;50274;45.640;11.756;2023-04-26T02:26:10;9.40;72.20
63017;DHT22;50274;45.640;11.756;2023-04-26T02:28:37;9.40;72.30
63017;DHT22;50274;45.640;11.756;2023-04-26T02:31:03;9.40;72.20
63017;DHT22;50274;45.640;11.756;2023-04-26T02:33:29;9.30;72.20
63017;DHT22;50274;45.640;11.756;2023-04-26T02:35:55;9.30;72.30
63017;DHT22;50274;45.640;11.756;2023-04-26T02:38:20;9.30;72.40
63017;DHT22;50274;45.640;11.756;2023-04-26T02:40:46;9.30;72.40
63017;DHT22;50274;45.640;11.756;2023-04-26T02:43:12;9.30;72.10
63017;DHT22;50274;45.640;11.756;2023-04-26T02:45:41;9.30;72.20
63017;DHT22;50274;45.640;11.756;2023-04-26T02:48:07;9.30;72.20
63017;DHT22;50274;45.640;11.756;2023-04-26T02:50:36;9.30;72.30
63017;DHT22;50274;45.640;11.756;2023-04-26T02:53:04;9.30;72.20
63017;DHT22;50274;45.640;11.756;2023-04-26T02:55:30;9.30;72.00
63017;DHT22;50274;45.640;11.756;2023-04-26T02:57:58;9.20;72.00
63017;DHT22;50274;45.640;11.756;2023-04-26T03:00:24;9.20;72.10
63017;DHT22;50274;45.640;11.756;2023-04-26T03:02:52;9.20;72.20
63017;DHT22;50274;45.640;11.756;2023-04-26T03:05:18;9.10;72.20
63017;DHT22;50274;45.640;11.756;2023-04-26T03:07:44;9.10;72.20
63017;DHT22;50274;45.640;11.756;2023-04-26T03:10:10;9.10;72.30
63017;DHT22;50274;45.640;11.756;2023-04-26T03:12:37;9.10;72.30
63017;DHT22;50274;45.640;11.756;2023-04-26T03:15:03;9.10;72.30
63017;DHT22;50274;45.640;11.756;2023-04-26T03:17:29;9.10;72.10
63017;DHT22;50274;45.640;11.756;2023-04-26T03:19:55;9.00;72.20
63017;DHT22;50274;45.640;11.756;2023-04-26T03:22:21;9.00;72.40
63017;DHT22;50274;45.640;11.756;2023-04-26T03:24:48;9.00;72.40
63017;DHT22;50274;45.640;11.756;2023-04-26T03:27:13;9.00;72.50
63017;DHT22;50274;45.640;11.756;2023-04-26T03:29:39;9.00;72.40
63017;DHT22;50274;45.640;11.756;2023-04-26T03:32:05;9.00;72.30
63017;DHT22;50274;45.640;11.756;2023-04-26T03:34:31;9.00;72.20
63017;DHT22;50274;45.640;11.756;2023-04-26T03:36:57;9.00;72.10
63017;DHT22;50274;45.640;11.756;2023-04-26T03:39:23;9.00;72.10
63017;DHT22;50274;45.640;11.756;2023-04-26T03:41:49;9.00;72.10
63017;DHT22;50274;45.640;11.756;2023-04-26T03:44:15;9.00;72.00
63017;DHT22;50274;45.640;11.756;2023-04-26T03:46:41;9.00;72.00
63017;DHT22;50274;45.640;11.756;2023-04-26T03:49:06;9.00;72.00
63017;DHT22;50274;45.640;11.756;2023-04-26T03:51:34;8.90;71.90
63017;DHT22;50274;45.640;11.756;2023-04-26T03:54:00;8.90;72.00
63017;DHT22;50274;45.640;11.756;2023-04-26T03:56:26;8.90;72.00
63017;DHT22;50274;45.640;11.756;2023-04-26T03:58:52;9.00;72.00
63017;DHT22;50274;45.640;11.756;2023-04-26T04:01:20;8.90;72.00
63017;DHT22;50274;45.640;11.756;2023-04-26T04:03:46;8.90;72.00
63017;DHT22;50274;45.640;11.756;2023-04-26T04:06:15;9.00;72.10
63017;DHT22;50274;45.640;11.756;2023-04-26T04:08:41;8.90;72.10
63017;DHT22;50274;45.640;11.756;2023-04-26T04:11:07;8.90;72.00
63017;DHT22;50274;45.640;11.756;2023-04-26T04:13:32;8.90;72.00
63017;DHT22;50274;45.640;11.756;2023-04-26T04:15:58;8.90;72.00
63017;DHT22;50274;45.640;11.756;2023-04-26T04:18:24;8.90;72.00
63017;DHT22;50274;45.640;11.756;2023-04-26T04:20:50;8.80;72.00
63017;DHT22;50274;45.640;11.756;2023-04-26T04:23:16;8.80;72.10
63017;DHT22;50274;45.640;11.756;2023-04-26T04:25:42;8.80;72.10
63017;DHT22;50274;45.640;11.756;2023-04-26T04:28:10;8.80;72.10
63017;DHT22;50274;45.640;11.756;2023-04-26T04:30:40;8.70;72.10
63017;DHT22;50274;45.640;11.756;2023-04-26T04:33:06;8.70;72.00
63017;DHT22;50274;45.640;11.756;2023-04-26T04:35:31;8.70;72.00
63017;DHT22;50274;45.640;11.756;2023-04-26T04:37:58;8.70;72.10
63017;DHT22;50274;45.640;11.756;2023-04-26T04:40:25;8.60;72.20
63017;DHT22;50274;45.640;11.756;2023-04-26T04:42:53;8.70;72.30
63017;DHT22;50274;45.640;11.756;2023-04-26T04:45:20;8.70;72.20
63017;DHT22;50274;45.640;11.756;2023-04-26T04:47:46;8.70;72.20
63017;DHT22;50274;45.640;11.756;2023-04-26T04:50:12;8.70;72.10
63017;DHT22;50274;45.640;11.756;2023-04-26T04:52:39;8.70;72.10
63017;DHT22;50274;45.640;11.756;2023-04-26T04:55:05;8.80;72.10
63017;DHT22;50274;45.640;11.756;2023-04-26T04:57:31;8.80;72.10
63017;DHT22;50274;45.640;11.756;2023-04-26T04:59:57;8.80;72.00
63017;DHT22;50274;45.640;11.756;2023-04-26T05:02:23;8.80;72.10
63017;DHT22;50274;45.640;11.756;2023-04-26T05:04:52;8.80;72.10
63017;DHT22;50274;45.640;11.756;2023-04-26T05:07:18;8.80;72.10
63017;DHT22;50274;45.640;11.756;2023-04-26T05:09:44;8.90;72.20
63017;DHT22;50274;45.640;11.756;2023-04-26T05:12:10;8.90;72.20
63017;DHT22;50274;45.640;11.756;2023-04-26T05:14:36;8.90;72.20
63017;DHT22;50274;45.640;11.756;2023-04-26T05:17:04;8.90;72.20
63017;DHT22;50274;45.640;11.756;2023-04-26T05:19:30;9.00;72.20
63017;DHT22;50274;45.640;11.756;2023-04-26T05:21:56;9.00;72.40
63017;DHT22;50274;45.640;11.756;2023-04-26T05:24:22;9.00;72.40
63017;DHT22;50274;45.640;11.756;2023-04-26T05:26:50;9.10;72.40
63017;DHT22;50274;45.640;11.756;2023-04-26T05:29:16;9.20;72.40
63017;DHT22;50274;45.640;11.756;2023-04-26T05:31:42;9.20;72.40
63017;DHT22;50274;45.640;11.756;2023-04-26T05:34:08;9.30;72.40
63017;DHT22;50274;45.640;11.756;2023-04-26T05:36:34;9.40;72.30
63017;DHT22;50274;45.640;11.756;2023-04-26T05:39:00;9.50;72.30
63017;DHT22;50274;45.640;11.756;2023-04-26T05:41:25;9.60;72.20
63017;DHT22;50274;45.640;11.756;2023-04-26T05:43:51;9.70;72.10
63017;DHT22;50274;45.640;11.756;2023-04-26T05:46:17;9.80;72.10
63017;DHT22;50274;45.640;11.756;2023-04-26T05:48:43;9.90;72.10
63017;DHT22;50274;45.640;11.756;2023-04-26T05:51:09;10.00;72.20
63017;DHT22;50274;45.640;11.756;2023-04-26T05:53:35;10.10;72.00
63017;DHT22;50274;45.640;11.756;2023-04-26T05:56:01;10.20;71.70
63017;DHT22;50274;45.640;11.756;2023-04-26T05:58:26;10.30;71.40
63017;DHT22;50274;45.640;11.756;2023-04-26T06:00:52;10.40;71.30
63017;DHT22;50274;45.640;11.756;2023-04-26T06:03:20;10.50;71.20
63017;DHT22;50274;45.640;11.756;2023-04-26T06:05:46;10.70;71.10
63017;DHT22;50274;45.640;11.756;2023-04-26T06:08:12;10.80;71.00
63017;DHT22;50274;45.640;11.756;2023-04-26T06:10:38;10.90;70.90
63017;DHT22;50274;45.640;11.756;2023-04-26T06:13:04;11.00;70.60
63017;DHT22;50274;45.640;11.756;2023-04-26T06:15:30;11.10;70.50
63017;DHT22;50274;45.640;11.756;2023-04-26T06:21:09;11.40;70.20
63017;DHT22;50274;45.640;11.756;2023-04-26T06:23:34;11.50;70.20
63017;DHT22;50274;45.640;11.756;2023-04-26T06:26:00;11.70;70.10
63017;DHT22;50274;45.640;11.756;2023-04-26T06:28:26;11.80;69.90
63017;DHT22;50274;45.640;11.756;2023-04-26T06:30:52;11.90;69.50
63017;DHT22;50274;45.640;11.756;2023-04-26T06:33:18;12.10;69.30
63017;DHT22;50274;45.640;11.756;2023-04-26T06:35:44;12.20;68.80
63017;DHT22;50274;45.640;11.756;2023-04-26T06:38:14;12.30;68.70
63017;DHT22;50274;45.640;11.756;2023-04-26T06:40:40;12.40;68.60
63017;DHT22;50274;45.640;11.756;2023-04-26T06:43:06;12.50;68.40
63017;DHT22;50274;45.640;11.756;2023-04-26T06:45:32;12.70;68.00
63017;DHT22;50274;45.640;11.756;2023-04-26T06:47:58;12.80;67.10
63017;DHT22;50274;45.640;11.756;2023-04-26T06:50:25;12.90;66.30
63017;DHT22;50274;45.640;11.756;2023-04-26T06:52:51;13.00;65.00
63017;DHT22;50274;45.640;11.756;2023-04-26T06:55:17;13.10;64.00
63017;DHT22;50274;45.640;11.756;2023-04-26T06:57:43;13.20;63.10
63017;DHT22;50274;45.640;11.756;2023-04-26T07:00:09;13.30;63.00
63017;DHT22;50274;45.640;11.756;2023-04-26T07:02:35;13.50;63.10
63017;DHT22;50274;45.640;11.756;2023-04-26T07:05:01;13.60;62.80
63017;DHT22;50274;45.640;11.756;2023-04-26T07:07:27;13.70;61.50
63017;DHT22;50274;45.640;11.756;2023-04-26T07:09:53;13.80;60.90
63017;DHT22;50274;45.640;11.756;2023-04-26T07:12:19;13.90;60.00
63017;DHT22;50274;45.640;11.756;2023-04-26T07:14:50;14.00;59.70
63017;DHT22;50274;45.640;11.756;2023-04-26T07:17:18;14.10;59.10
63017;DHT22;50274;45.640;11.756;2023-04-26T07:19:44;14.10;59.30
63017;DHT22;50274;45.640;11.756;2023-04-26T07:22:10;14.20;59.00
63017;DHT22;50274;45.640;11.756;2023-04-26T07:24:36;14.40;58.50
63017;DHT22;50274;45.640;11.756;2023-04-26T07:27:02;14.40;58.30
63017;DHT22;50274;45.640;11.756;2023-04-26T07:29:28;14.50;57.70
63017;DHT22;50274;45.640;11.756;2023-04-26T07:31:54;14.60;57.60
63017;DHT22;50274;45.640;11.756;2023-04-26T07:34:21;14.70;57.30
63017;DHT22;50274;45.640;11.756;2023-04-26T07:36:47;14.80;57.10
63017;DHT22;50274;45.640;11.756;2023-04-26T07:39:13;14.90;57.00
63017;DHT22;50274;45.640;11.756;2023-04-26T07:41:39;15.00;56.70
63017;DHT22;50274;45.640;11.756;2023-04-26T07:44:06;15.00;56.80
63017;DHT22;50274;45.640;11.756;2023-04-26T07:46:32;15.10;56.00
63017;DHT22;50274;45.640;11.756;2023-04-26T07:48:59;15.20;56.00
63017;DHT22;50274;45.640;11.756;2023-04-26T07:51:25;15.30;56.20
63017;DHT22;50274;45.640;11.756;2023-04-26T07:53:52;15.40;55.80
63017;DHT22;50274;45.640;11.756;2023-04-26T07:56:18;15.50;55.30
63017;DHT22;50274;45.640;11.756;2023-04-26T07:58:44;15.60;55.00
63017;DHT22;50274;45.640;11.756;2023-04-26T08:01:09;15.70;54.10
63017;DHT22;50274;45.640;11.756;2023-04-26T08:03:36;15.80;54.20
63017;DHT22;50274;45.640;11.756;2023-04-26T08:06:02;15.90;54.20
63017;DHT22;50274;45.640;11.756;2023-04-26T08:08:28;16.00;53.80
63017;DHT22;50274;45.640;11.756;2023-04-26T08:10:54;16.10;54.40
63017;DHT22;50274;45.640;11.756;2023-04-26T08:13:21;16.20;54.10
63017;DHT22;50274;45.640;11.756;2023-04-26T08:15:47;16.30;54.10
63017;DHT22;50274;45.640;11.756;2023-04-26T08:18:13;16.30;52.40
63017;DHT22;50274;45.640;11.756;2023-04-26T08:20:38;16.40;52.30
63017;DHT22;50274;45.640;11.756;2023-04-26T08:23:04;16.50;52.20
63017;DHT22;50274;45.640;11.756;2023-04-26T08:25:30;16.60;51.80
63017;DHT22;50274;45.640;11.756;2023-04-26T08:27:59;16.60;51.70
63017;DHT22;50274;45.640;11.756;2023-04-26T08:30:25;16.70;51.90
63017;DHT22;50274;45.640;11.756;2023-04-26T08:32:51;16.80;52.00
63017;DHT22;50274;45.640;11.756;2023-04-26T08:35:17;16.90;51.90
63017;DHT22;50274;45.640;11.756;2023-04-26T08:37:43;17.00;51.60
63017;DHT22;50274;45.640;11.756;2023-04-26T08:40:09;17.00;51.10
63017;DHT22;50274;45.640;11.756;2023-04-26T08:42:41;17.10;51.50
63017;DHT22;50274;45.640;11.756;2023-04-26T08:45:10;17.20;51.70
63017;DHT22;50274;45.640;11.756;2023-04-26T08:47:49;17.30;51.20
63017;DHT22;50274;45.640;11.756;2023-04-26T08:50:19;17.40;51.30
63017;DHT22;50274;45.640;11.756;2023-04-26T08:52:48;17.50;51.50
63017;DHT22;50274;45.640;11.756;2023-04-26T08:55:15;17.60;51.20
63017;DHT22;50274;45.640;11.756;2023-04-26T08:57:45;17.70;51.20
63017;DHT22;50274;45.640;11.756;2023-04-26T09:00:12;17.70;51.70
63017;DHT22;50274;45.640;11.756;2023-04-26T09:02:50;17.80;51.20
63017;DHT22;50274;45.640;11.756;2023-04-26T09:05:20;17.90;50.80
63017;DHT22;50274;45.640;11.756;2023-04-26T09:07:49;18.00;50.50
63017;DHT22;50274;45.640;11.756;2023-04-26T09:10:19;18.00;50.20
63017;DHT22;50274;45.640;11.756;2023-04-26T09:12:46;18.10;50.40
63017;DHT22;50274;45.640;11.756;2023-04-26T09:15:14;18.20;49.70
63017;DHT22;50274;45.640;11.756;2023-04-26T09:17:40;18.20;49.80
63017;DHT22;50274;45.640;11.756;2023-04-26T09:20:29;18.30;50.40
63017;DHT22;50274;45.640;11.756;2023-04-26T09:23:06;18.40;50.50
63017;DHT22;50274;45.640;11.756;2023-04-26T09:25:32;18.40;49.70
63017;DHT22;50274;45.640;11.756;2023-04-26T09:27:59;18.50;50.00
63017;DHT22;50274;45.640;11.756;2023-04-26T09:30:26;18.60;50.20
63017;DHT22;50274;45.640;11.756;2023-04-26T09:32:59;18.70;48.80
63017;DHT22;50274;45.640;11.756;2023-04-26T09:35:40;18.70;49.00
63017;DHT22;50274;45.640;11.756;2023-04-26T09:40:48;18.80;50.50
63017;DHT22;50274;45.640;11.756;2023-04-26T09:43:21;18.80;49.70
63017;DHT22;50274;45.640;11.756;2023-04-26T09:45:57;19.00;50.00
63017;DHT22;50274;45.640;11.756;2023-04-26T09:48:24;19.00;49.10
63017;DHT22;50274;45.640;11.756;2023-04-26T09:50:53;19.10;49.10
63017;DHT22;50274;45.640;11.756;2023-04-26T09:53:36;19.20;49.40
63017;DHT22;50274;45.640;11.756;2023-04-26T09:56:10;19.20;48.40
63017;DHT22;50274;45.640;11.756;2023-04-26T09:58:38;19.30;46.30
63017;DHT22;50274;45.640;11.756;2023-04-26T10:01:05;19.40;46.70
63017;DHT22;50274;45.640;11.756;2023-04-26T10:03:34;19.50;47.70
63017;DHT22;50274;45.640;11.756;2023-04-26T10:06:00;19.60;47.50
63017;DHT22;50274;45.640;11.756;2023-04-26T10:08:26;19.70;47.10
63017;DHT22;50274;45.640;11.756;2023-04-26T10:10:54;19.80;47.20
63017;DHT22;50274;45.640;11.756;2023-04-26T10:13:20;19.90;47.20
63017;DHT22;50274;45.640;11.756;2023-04-26T10:15:47;20.00;46.90
63017;DHT22;50274;45.640;11.756;2023-04-26T10:18:13;20.00;46.40
63017;DHT22;50274;45.640;11.756;2023-04-26T10:20:41;20.10;46.00
63017;DHT22;50274;45.640;11.756;2023-04-26T10:23:17;20.10;46.50
63017;DHT22;50274;45.640;11.756;2023-04-26T10:25:50;20.10;46.40
63017;DHT22;50274;45.640;11.756;2023-04-26T10:31:09;20.30;46.60
63017;DHT22;50274;45.640;11.756;2023-04-26T10:33:35;20.20;45.70
63017;DHT22;50274;45.640;11.756;2023-04-26T10:36:12;20.30;46.30
63017;DHT22;50274;45.640;11.756;2023-04-26T10:39:25;20.50;46.60
63017;DHT22;50274;45.640;11.756;2023-04-26T10:41:31;20.60;46.80
63017;DHT22;50274;45.640;11.756;2023-04-26T10:46:50;20.60;46.30
63017;DHT22;50274;45.640;11.756;2023-04-26T10:49:20;20.80;45.70
63017;DHT22;50274;45.640;11.756;2023-04-26T10:52:23;20.90;46.20
63017;DHT22;50274;45.640;11.756;2023-04-26T10:54:52;21.10;46.50
63017;DHT22;50274;45.640;11.756;2023-04-26T10:57:18;21.10;45.10
63017;DHT22;50274;45.640;11.756;2023-04-26T11:08:14;21.00;45.80
63017;DHT22;50274;45.640;11.756;2023-04-26T11:10:41;20.60;46.30
63017;DHT22;50274;45.640;11.756;2023-04-26T11:13:07;20.40;47.20
63017;DHT22;50274;45.640;11.756;2023-04-26T11:15:33;20.20;47.40
63017;DHT22;50274;45.640;11.756;2023-04-26T11:18:03;20.20;46.50
63017;DHT22;50274;45.640;11.756;2023-04-26T11:20:32;20.50;46.70
63017;DHT22;50274;45.640;11.756;2023-04-26T11:22:59;20.80;46.80
63017;DHT22;50274;45.640;11.756;2023-04-26T11:25:26;21.10;46.20
63017;DHT22;50274;45.640;11.756;2023-04-26T11:27:57;21.30;44.60
63017;DHT22;50274;45.640;11.756;2023-04-26T11:30:32;21.60;44.40
63017;DHT22;50274;45.640;11.756;2023-04-26T11:36:57;21.90;43.90
63017;DHT22;50274;45.640;11.756;2023-04-26T11:39:24;22.00;43.70
63017;DHT22;50274;45.640;11.756;2023-04-26T11:41:50;22.20;44.90
63017;DHT22;50274;45.640;11.756;2023-04-26T11:44:19;22.40;44.80
63017;DHT22;50274;45.640;11.756;2023-04-26T11:46:48;22.30;43.70
63017;DHT22;50274;45.640;11.756;2023-04-26T11:49:15;22.00;43.90
63017;DHT22;50274;45.640;11.756;2023-04-26T11:51:42;21.60;43.90
63017;DHT22;50274;45.640;11.756;2023-04-26T11:54:09;21.30;44.50
63017;DHT22;50274;45.640;11.756;2023-04-26T11:56:35;21.30;44.70
63017;DHT22;50274;45.640;11.756;2023-04-26T11:59:04;21.50;45.30
63017;DHT22;50274;45.640;11.756;2023-04-26T12:01:30;21.70;44.60
63017;DHT22;50274;45.640;11.756;2023-04-26T12:03:59;22.00;43.00
63017;DHT22;50274;45.640;11.756;2023-04-26T12:06:29;22.30;42.40
63017;DHT22;50274;45.640;11.756;2023-04-26T12:08:58;22.50;42.90
63017;DHT22;50274;45.640;11.756;2023-04-26T12:11:26;22.80;42.80
63017;DHT22;50274;45.640;11.756;2023-04-26T12:13:51;23.10;42.60
63017;DHT22;50274;45.640;11.756;2023-04-26T12:16:17;23.20;42.20
63017;DHT22;50274;45.640;11.756;2023-04-26T12:18:49;23.40;42.20
63017;DHT22;50274;45.640;11.756;2023-04-26T12:21:16;23.10;41.50
63017;DHT22;50274;45.640;11.756;2023-04-26T12:23:42;22.70;40.80
63017;DHT22;50274;45.640;11.756;2023-04-26T12:26:12;22.60;41.40
63017;DHT22;50274;45.640;11.756;2023-04-26T12:28:39;22.90;42.30
63017;DHT22;50274;45.640;11.756;2023-04-26T12:31:06;22.60;40.70
63017;DHT22;50274;45.640;11.756;2023-04-26T12:33:32;22.40;41.20
63017;DHT22;50274;45.640;11.756;2023-04-26T12:36:11;22.30;41.40
63017;DHT22;50274;45.640;11.756;2023-04-26T12:38:38;22.50;41.70
63017;DHT22;50274;45.640;11.756;2023-04-26T12:41:05;22.70;40.10
63017;DHT22;50274;45.640;11.756;2023-04-26T12:43:31;23.00;40.30
63017;DHT22;50274;45.640;11.756;2023-04-26T12:45:57;23.00;39.90
63017;DHT22;50274;45.640;11.756;2023-04-26T12:48:23;23.10;40.20
63017;DHT22;50274;45.640;11.756;2023-04-26T12:50:49;23.20;41.40
63017;DHT22;50274;45.640;11.756;2023-04-26T12:53:15;23.40;41.30
63017;DHT22;50274;45.640;11.756;2023-04-26T12:55:42;23.40;39.60
63017;DHT22;50274;45.640;11.756;2023-04-26T12:58:08;23.60;40.00
63017;DHT22;50274;45.640;11.756;2023-04-26T13:00:34;23.70;39.30
63017;DHT22;50274;45.640;11.756;2023-04-26T13:03:00;23.70;38.60
63017;DHT22;50274;45.640;11.756;2023-04-26T13:05:26;23.70;39.30
63017;DHT22;50274;45.640;11.756;2023-04-26T13:07:54;23.60;39.20
63017;DHT22;50274;45.640;11.756;2023-04-26T13:10:20;23.80;39.10
63017;DHT22;50274;45.640;11.756;2023-04-26T13:12:46;23.90;39.40
63017;DHT22;50274;45.640;11.756;2023-04-26T13:15:14;24.00;39.30
63017;DHT22;50274;45.640;11.756;2023-04-26T13:17:40;24.10;39.50
63017;DHT22;50274;45.640;11.756;2023-04-26T13:20:07;24.10;38.80
63017;DHT22;50274;45.640;11.756;2023-04-26T13:22:33;24.00;39.00
63017;DHT22;50274;45.640;11.756;2023-04-26T13:24:59;24.10;38.70
63017;DHT22;50274;45.640;11.756;2023-04-26T13:27:25;24.00;39.00
63017;DHT22;50274;45.640;11.756;2023-04-26T13:29:51;23.80;38.90
63017;DHT22;50274;45.640;11.756;2023-04-26T13:32:17;23.30;39.00
63017;DHT22;50274;45.640;11.756;2023-04-26T13:34:46;22.80;39.60
63017;DHT22;50274;45.640;11.756;2023-04-26T13:37:12;22.30;40.30
63017;DHT22;50274;45.640;11.756;2023-04-26T13:39:38;22.00;41.10
63017;DHT22;50274;45.640;11.756;2023-04-26T13:42:04;21.70;42.30
63017;DHT22;50274;45.640;11.756;2023-04-26T13:44:30;21.80;42.50
63017;DHT22;50274;45.640;11.756;2023-04-26T13:46:56;21.80;42.80
63017;DHT22;50274;45.640;11.756;2023-04-26T13:49:23;21.90;43.30
63017;DHT22;50274;45.640;11.756;2023-04-26T13:51:51;21.80;42.50
63017;DHT22;50274;45.640;11.756;2023-04-26T13:54:17;21.70;42.80
63017;DHT22;50274;45.640;11.756;2023-04-26T13:56:46;21.40;42.60
63017;DHT22;50274;45.640;11.756;2023-04-26T13:59:11;21.30;42.80
63017;DHT22;50274;45.640;11.756;2023-04-26T14:01:39;21.20;42.60
63017;DHT22;50274;45.640;11.756;2023-04-26T14:04:05;21.20;43.20
63017;DHT22;50274;45.640;11.756;2023-04-26T14:06:32;21.30;43.10
63017;DHT22;50274;45.640;11.756;2023-04-26T14:08:59;21.50;43.00
63017;DHT22;50274;45.640;11.756;2023-04-26T14:11:25;21.70;42.90
63017;DHT22;50274;45.640;11.756;2023-04-26T14:13:51;21.80;43.00
63017;DHT22;50274;45.640;11.756;2023-04-26T14:16:23;21.90;42.20
63017;DHT22;50274;45.640;11.756;2023-04-26T14:18:50;22.20;42.70
63017;DHT22;50274;45.640;11.756;2023-04-26T14:21:17;22.20;42.30
63017;DHT22;50274;45.640;11.756;2023-04-26T14:23:43;22.20;41.60
63017;DHT22;50274;45.640;11.756;2023-04-26T14:26:09;22.10;41.80
63017;DHT22;50274;45.640;11.756;2023-04-26T14:28:35;21.90;42.20
63017;DHT22;50274;45.640;11.756;2023-04-26T14:31:01;21.80;42.10
63017;DHT22;50274;45.640;11.756;2023-04-26T14:33:27;21.80;42.30
63017;DHT22;50274;45.640;11.756;2023-04-26T14:35:53;21.90;41.80
63017;DHT22;50274;45.640;11.756;2023-04-26T14:38:19;21.90;42.00
63017;DHT22;50274;45.640;11.756;2023-04-26T14:40:45;22.00;42.40
63017;DHT22;50274;45.640;11.756;2023-04-26T14:43:11;21.90;40.60
63017;DHT22;50274;45.640;11.756;2023-04-26T14:45:37;21.70;39.50
63017;DHT22;50274;45.640;11.756;2023-04-26T14:48:03;21.60;39.30
63017;DHT22;50274;45.640;11.756;2023-04-26T14:50:29;21.40;40.00
63017;DHT22;50274;45.640;11.756;2023-04-26T14:52:55;21.40;39.00
63017;DHT22;50274;45.640;11.756;2023-04-26T14:55:21;21.30;37.50
63017;DHT22;50274;45.640;11.756;2023-04-26T14:57:48;21.30;37.90
63017;DHT22;50274;45.640;11.756;2023-04-26T15:00:15;21.20;38.50
63017;DHT22;50274;45.640;11.756;2023-04-26T15:02:42;21.10;38.80
63017;DHT22;50274;45.640;11.756;2023-04-26T15:05:09;21.10;37.60
63017;DHT22;50274;45.640;11.756;2023-04-26T15:07:36;21.00;38.00
63017;DHT22;50274;45.640;11.756;2023-04-26T15:10:03;20.90;38.50
63017;DHT22;50274;45.640;11.756;2023-04-26T15:12:30;20.80;39.30
63017;DHT22;50274;45.640;11.756;2023-04-26T15:14:55;20.70;39.70
63017;DHT22;50274;45.640;11.756;2023-04-26T15:17:22;20.70;38.80
63017;DHT22;50274;45.640;11.756;2023-04-26T15:19:47;20.70;38.30
63017;DHT22;50274;45.640;11.756;2023-04-26T15:22:13;20.70;38.40
63017;DHT22;50274;45.640;11.756;2023-04-26T15:24:39;20.70;38.40
63017;DHT22;50274;45.640;11.756;2023-04-26T15:27:05;20.70;37.50
63017;DHT22;50274;45.640;11.756;2023-04-26T15:29:31;20.80;37.20
63017;DHT22;50274;45.640;11.756;2023-04-26T15:31:57;20.80;36.80
63017;DHT22;50274;45.640;11.756;2023-04-26T15:34:23;20.80;36.80
63017;DHT22;50274;45.640;11.756;2023-04-26T15:36:52;20.80;36.80
63017;DHT22;50274;45.640;11.756;2023-04-26T15:39:18;20.90;37.10
63017;DHT22;50274;45.640;11.756;2023-04-26T15:41:44;20.90;36.70
63017;DHT22;50274;45.640;11.756;2023-04-26T15:44:10;20.80;36.60